Terminal Aerodrome Forecast
Issued by NWS Cleveland, OH

Home | Current Version | Previous Version | Text Only | Print | Product List | Glossary Off
Versions: 1 2 3 4 5 6 7 8 9 10 11 12 13 14 15

000
FTUS41 KCLE 310533
TAFYNG
TAF
KYNG 310533Z 3106/0106 21005KT P6SM BKN150
      TEMPO 3109/3112 4SM BR
     FM311400 24005KT P6SM SCT040
     FM311800 26008KT P6SM BKN040=

USA.gov is the U.S. government's official web portal to all federal, state and local government web resources and services.